Terminal Aerodrome Forecast
Issued by NWS Charleston, WV

Current Version | Previous Version | Text Only | Print | Product List | Glossary Off
Versions: 1 2 3 4 5 6 7 8 9 10 11 12 13 14 15 16 17 18 19 20 21

000
FTUS41 KRLX 100800 AAA
TAFEKN
TAF AMD
KEKN 100847Z 1009/1106 00000KT 3SM BR SCT001 BKN040
     FM101100 00000KT 2SM BR SCT003
     FM101300 VRB03KT P6SM SCT035
     FM101500 VRB03KT P6SM SCT040=

USA.gov is the U.S. government's official web portal to all federal, state and local government web resources and services.